Time;durP1;ratioP1;P1;durP2;ratioP2;P2;SDS_P1;SDS_P2;PMS_P1;PMS_P2;Temp;Humidity;BMP_temperature;BMP_pressure;BME280_temperature;BME280_humidity;BME280_pressure;Samples;Min_cycle;Max_cycle;Signal;HPM_P1;HPM_P2
2023/03/29 00:02:00;;;;;;;6.05;2.80;;;;;;;;;;5042058;28;20120;-81
2023/03/29 00:04:26;;;;;;;5.45;2.97;;;;;;;;;;5053543;28;20045;-81
2023/03/29 00:06:53;;;;;;;6.35;2.90;;;;;;;;;;5054227;28;20041;-81
2023/03/29 00:09:19;;;;;;;5.32;2.80;;;;;;;;;;5053941;28;20035;-81
2023/03/29 00:11:45;;;;;;;7.90;3.20;;;;;;;;;;5053570;28;20037;-81
2023/03/29 00:14:11;;;;;;;6.85;2.97;;;;;;;;;;5055015;28;20044;-81
2023/03/29 00:16:37;;;;;;;5.03;2.88;;;;;;;;;;5054878;28;20033;-81
2023/03/29 00:19:03;;;;;;;9.10;2.85;;;;;;;;;;5055424;28;20436;-81
2023/03/29 00:21:30;;;;;;;6.60;3.00;;;;;;;;;;5053577;28;20101;-81
2023/03/29 00:23:56;;;;;;;6.75;3.08;;;;;;;;;;5053727;28;20045;-81
2023/03/29 00:26:22;;;;;;;9.52;3.40;;;;;;;;;;5037193;28;20389;-81
2023/03/29 00:28:49;;;;;;;6.10;2.97;;;;;;;;;;5054481;28;20059;-81
2023/03/29 00:31:16;;;;;;;4.70;2.55;;;;;;;;;;5070627;28;20497;-81
2023/03/29 00:33:42;;;;;;;4.80;2.83;;;;;;;;;;5052812;28;20080;-81
2023/03/29 00:36:09;;;;;;;6.63;2.78;;;;;;;;;;5054658;28;20049;-81
2023/03/29 00:38:36;;;;;;;5.68;2.75;;;;;;;;;;5039926;28;20040;-81
2023/03/29 00:41:02;;;;;;;4.50;2.83;;;;;;;;;;5054281;28;20044;-81
2023/03/29 00:43:28;;;;;;;5.65;2.95;;;;;;;;;;5054187;28;20044;-81
2023/03/29 00:45:55;;;;;;;7.60;2.95;;;;;;;;;;5052320;28;20115;-81
2023/03/29 00:48:23;;;;;;;6.72;3.20;;;;;;;;;;5053019;28;20040;-81
2023/03/29 00:50:56;;;;;;;7.32;3.35;;;;;;;;;;5052583;28;20232;-81
2023/03/29 00:53:27;;;;;;;5.78;3.10;;;;;;;;;;5052543;28;20040;-81
2023/03/29 00:55:57;;;;;;;9.77;3.20;;;;;;;;;;5052342;28;20102;-81
2023/03/29 00:58:28;;;;;;;5.82;3.10;;;;;;;;;;5054051;28;20112;-81
2023/03/29 01:01:00;;;;;;;5.75;2.95;;;;;;;;;;5047893;28;20041;-81
2023/03/29 01:03:29;;;;;;;6.68;3.28;;;;;;;;;;5046968;28;20045;-81
2023/03/29 01:05:57;;;;;;;7.85;3.08;;;;;;;;;;5052645;28;20404;-81
2023/03/29 01:08:29;;;;;;;6.78;3.08;;;;;;;;;;5053570;28;20106;-81
2023/03/29 01:11:04;;;;;;;8.45;2.90;;;;;;;;;;5052493;28;20056;-81
2023/03/29 01:13:35;;;;;;;5.30;3.00;;;;;;;;;;5052466;28;20098;-81
2023/03/29 01:16:03;;;;;;;7.57;3.05;;;;;;;;;;5053434;28;20094;-81
2023/03/29 01:18:30;;;;;;;7.05;3.15;;;;;;;;;;5052186;28;20045;-81
2023/03/29 01:21:08;;;;;;;6.57;3.00;;;;;;;;;;5052018;28;20262;-81
2023/03/29 01:23:44;;;;;;;6.30;3.13;;;;;;;;;;5051867;28;20191;-81
2023/03/29 01:26:18;;;;;;;8.48;3.42;;;;;;;;;;5052167;28;20120;-81
2023/03/29 01:28:50;;;;;;;8.18;3.03;;;;;;;;;;5085558;28;20044;-81
2023/03/29 01:31:21;;;;;;;8.07;3.53;;;;;;;;;;5052199;28;20072;-81
2023/03/29 01:33:53;;;;;;;5.97;2.90;;;;;;;;;;5052007;28;20052;-82
2023/03/29 01:36:33;;;;;;;6.40;3.55;;;;;;;;;;5051935;28;20056;-81
2023/03/29 01:39:05;;;;;;;8.30;3.45;;;;;;;;;;5053002;28;20405;-81
2023/03/29 01:41:35;;;;;;;6.72;3.60;;;;;;;;;;5051736;28;20056;-81
2023/03/29 01:44:13;;;;;;;9.10;4.55;;;;;;;;;;5051449;28;20052;-81
2023/03/29 01:46:44;;;;;;;6.65;3.60;;;;;;;;;;5052919;28;20112;-81
2023/03/29 01:49:11;;;;;;;10.00;3.83;;;;;;;;;;5052958;28;20044;-81
2023/03/29 01:51:39;;;;;;;8.40;4.30;;;;;;;;;;5051639;28;20045;-81
2023/03/29 01:54:05;;;;;;;8.13;4.70;;;;;;;;;;5051008;28;20082;-81
2023/03/29 01:56:35;;;;;;;8.98;4.45;;;;;;;;;;5051534;28;20045;-81
2023/03/29 01:59:03;;;;;;;9.07;4.50;;;;;;;;;;5034367;28;20048;-81
2023/03/29 02:01:32;;;;;;;9.48;4.20;;;;;;;;;;5050628;28;20056;-81
2023/03/29 02:04:01;;;;;;;6.28;3.65;;;;;;;;;;5050605;28;20045;-81
2023/03/29 02:06:28;;;;;;;8.93;4.53;;;;;;;;;;5050426;28;20059;-81
2023/03/29 02:08:54;;;;;;;7.55;4.30;;;;;;;;;;5052113;28;20045;-81
2023/03/29 02:11:22;;;;;;;9.43;4.80;;;;;;;;;;5084618;28;20082;-81
2023/03/29 02:13:48;;;;;;;11.52;4.88;;;;;;;;;;5052140;28;20432;-81
2023/03/29 02:16:14;;;;;;;8.18;4.22;;;;;;;;;;5072547;28;20060;-81
2023/03/29 02:18:42;;;;;;;7.85;4.43;;;;;;;;;;5060757;28;20043;-81
2023/03/29 02:21:13;;;;;;;9.60;4.47;;;;;;;;;;5054426;28;20103;-81
2023/03/29 02:23:45;;;;;;;8.52;4.60;;;;;;;;;;5050809;28;20061;-81
2023/03/29 02:26:13;;;;;;;8.82;5.03;;;;;;;;;;5051244;28;20045;-81
2023/03/29 02:28:39;;;;;;;8.30;5.07;;;;;;;;;;5051049;28;20037;-81
2023/03/29 02:31:35;;;;;;;10.25;5.18;;;;;;;;;;5050066;28;20049;-81
2023/03/29 02:34:20;;;;;;;8.57;4.63;;;;;;;;;;5079930;28;20045;-81
2023/03/29 02:36:49;;;;;;;11.00;4.57;;;;;;;;;;5051780;28;20048;-81
2023/03/29 02:39:16;;;;;;;9.23;4.50;;;;;;;;;;5050936;28;20068;-81
2023/03/29 02:41:44;;;;;;;7.70;4.25;;;;;;;;;;5050635;28;20037;-81
2023/03/29 02:44:12;;;;;;;10.93;5.18;;;;;;;;;;5050183;28;20497;-81
2023/03/29 02:46:41;;;;;;;8.15;4.20;;;;;;;;;;5050685;28;20120;-81
2023/03/29 02:49:09;;;;;;;9.50;4.45;;;;;;;;;;5051716;28;20343;-81
2023/03/29 02:51:36;;;;;;;13.55;5.10;;;;;;;;;;5051999;28;20514;-81
2023/03/29 02:54:21;;;;;;;9.57;5.18;;;;;;;;;;5050167;28;20037;-81
2023/03/29 02:56:55;;;;;;;8.88;4.60;;;;;;;;;;5048576;28;20090;-81
2023/03/29 02:59:21;;;;;;;7.68;4.28;;;;;;;;;;5059425;28;20083;-81
2023/03/29 03:01:48;;;;;;;12.05;4.75;;;;;;;;;;5054103;28;20086;-81
2023/03/29 03:04:16;;;;;;;10.95;5.18;;;;;;;;;;5071332;28;20063;-81
2023/03/29 03:06:42;;;;;;;7.78;4.63;;;;;;;;;;5056446;28;20047;-81
2023/03/29 03:09:08;;;;;;;9.13;4.85;;;;;;;;;;5070177;28;20113;-81
2023/03/29 03:11:35;;;;;;;7.82;4.57;;;;;;;;;;5071727;28;20509;-81
2023/03/29 03:14:01;;;;;;;8.57;4.70;;;;;;;;;;5062657;28;20497;-81
2023/03/29 03:16:27;;;;;;;7.95;4.75;;;;;;;;;;5066430;28;20036;-81
2023/03/29 03:18:54;;;;;;;10.82;4.40;;;;;;;;;;5054314;28;20037;-81
2023/03/29 03:21:20;;;;;;;10.07;4.55;;;;;;;;;;5050790;28;20456;-81
2023/03/29 03:23:47;;;;;;;9.40;5.05;;;;;;;;;;5049947;28;20061;-81
2023/03/29 03:26:14;;;;;;;10.02;4.72;;;;;;;;;;5051313;28;20048;-81
2023/03/29 03:28:40;;;;;;;9.00;4.35;;;;;;;;;;5050111;28;20068;-82
2023/03/29 03:31:07;;;;;;;10.23;4.43;;;;;;;;;;5051350;28;20037;-81
2023/03/29 03:33:33;;;;;;;8.73;4.97;;;;;;;;;;5065315;28;20408;-81
2023/03/29 03:36:05;;;;;;;8.52;4.47;;;;;;;;;;5069779;28;20048;-81
2023/03/29 03:38:34;;;;;;;8.02;4.20;;;;;;;;;;5070732;28;20040;-81
2023/03/29 03:41:01;;;;;;;8.23;4.35;;;;;;;;;;5042910;28;20048;-81
2023/03/29 03:43:27;;;;;;;9.60;4.75;;;;;;;;;;5073358;28;20091;-81
2023/03/29 03:45:56;;;;;;;8.90;4.45;;;;;;;;;;5069061;28;20044;-81
2023/03/29 03:48:23;;;;;;;8.10;4.88;;;;;;;;;;5064692;28;20051;-81
2023/03/29 03:50:50;;;;;;;11.00;5.30;;;;;;;;;;5073581;28;20283;-81
2023/03/29 03:53:17;;;;;;;9.40;4.80;;;;;;;;;;5074875;28;20055;-81
2023/03/29 03:55:54;;;;;;;9.77;5.10;;;;;;;;;;5056972;28;20106;-81
2023/03/29 03:58:21;;;;;;;8.40;4.68;;;;;;;;;;5073574;28;20060;-81
2023/03/29 04:00:47;;;;;;;11.52;4.50;;;;;;;;;;5065505;28;20041;-81
2023/03/29 04:03:14;;;;;;;9.23;4.78;;;;;;;;;;5053134;28;20041;-81
2023/03/29 04:05:41;;;;;;;9.38;4.80;;;;;;;;;;5052374;28;20049;-81
2023/03/29 04:08:08;;;;;;;9.73;4.68;;;;;;;;;;5071801;28;20098;-81
2023/03/29 04:10:34;;;;;;;8.02;4.75;;;;;;;;;;5074663;28;20115;-81
2023/03/29 04:13:01;;;;;;;10.60;4.45;;;;;;;;;;5072859;28;20110;-81
2023/03/29 04:15:27;;;;;;;8.27;4.75;;;;;;;;;;5070328;28;20494;-81
2023/03/29 04:17:54;;;;;;;8.35;4.70;;;;;;;;;;5053189;28;20069;-82
2023/03/29 04:20:20;;;;;;;9.80;5.00;;;;;;;;;;5036158;28;20072;-81
2023/03/29 04:22:46;;;;;;;8.38;4.35;;;;;;;;;;5054590;28;20083;-81
2023/03/29 04:25:12;;;;;;;9.23;4.72;;;;;;;;;;5052500;28;20052;-81
2023/03/29 04:27:39;;;;;;;9.32;5.05;;;;;;;;;;5053362;28;20508;-81
2023/03/29 04:30:06;;;;;;;11.00;5.00;;;;;;;;;;5053772;28;20037;-81
2023/03/29 04:32:32;;;;;;;8.52;4.78;;;;;;;;;;5036227;28;20041;-81
2023/03/29 04:34:58;;;;;;;10.65;4.80;;;;;;;;;;5036136;28;20052;-82
2023/03/29 04:37:24;;;;;;;11.20;6.07;;;;;;;;;;5052850;28;20047;-81
2023/03/29 04:39:51;;;;;;;12.52;5.68;;;;;;;;;;5052935;28;20037;-81
2023/03/29 04:42:18;;;;;;;9.48;5.18;;;;;;;;;;5052399;28;20045;-81
2023/03/29 04:44:44;;;;;;;12.52;5.72;;;;;;;;;;5053834;28;20459;-81
2023/03/29 04:47:13;;;;;;;14.88;6.10;;;;;;;;;;5052337;28;20132;-81
2023/03/29 04:49:40;;;;;;;12.85;6.40;;;;;;;;;;5052312;28;20063;-81
2023/03/29 04:52:06;;;;;;;12.73;5.75;;;;;;;;;;5052715;28;20382;-81
2023/03/29 04:54:33;;;;;;;13.45;5.50;;;;;;;;;;5052161;28;20049;-81
2023/03/29 04:56:59;;;;;;;12.23;6.43;;;;;;;;;;5053894;28;20044;-81
2023/03/29 04:59:25;;;;;;;11.85;6.65;;;;;;;;;;5053333;28;20090;-81
2023/03/29 05:01:51;;;;;;;12.98;6.03;;;;;;;;;;5050120;28;20049;-81
2023/03/29 05:04:17;;;;;;;12.43;6.22;;;;;;;;;;5052979;28;20476;-81
2023/03/29 05:06:43;;;;;;;15.95;6.20;;;;;;;;;;5055536;28;20056;-81
2023/03/29 05:09:09;;;;;;;13.75;6.30;;;;;;;;;;5051987;28;20045;-81
2023/03/29 05:11:35;;;;;;;12.20;5.25;;;;;;;;;;5053614;28;20037;-81
2023/03/29 05:14:06;;;;;;;11.82;6.72;;;;;;;;;;5053373;28;20037;-82
2023/03/29 05:16:33;;;;;;;12.20;6.30;;;;;;;;;;5053258;28;20067;-81
2023/03/29 05:18:59;;;;;;;12.27;6.13;;;;;;;;;;5052412;28;20486;-81
2023/03/29 05:21:27;;;;;;;11.93;6.78;;;;;;;;;;5051627;28;20044;-81
2023/03/29 05:23:53;;;;;;;16.20;6.07;;;;;;;;;;5053000;28;20057;-81
2023/03/29 05:26:21;;;;;;;13.85;7.05;;;;;;;;;;5051610;28;20059;-81
2023/03/29 05:28:47;;;;;;;13.15;5.97;;;;;;;;;;5053173;28;20116;-81
2023/03/29 05:31:13;;;;;;;10.32;5.93;;;;;;;;;;5051921;28;20543;-81
2023/03/29 05:33:39;;;;;;;15.07;6.32;;;;;;;;;;5052244;28;20549;-81
2023/03/29 05:36:12;;;;;;;13.60;6.75;;;;;;;;;;5051948;28;20477;-81
2023/03/29 05:38:38;;;;;;;13.80;7.20;;;;;;;;;;5053228;28;20099;-81
2023/03/29 05:41:09;;;;;;;15.02;7.43;;;;;;;;;;5051460;28;20047;-81
2023/03/29 05:43:35;;;;;;;16.17;6.65;;;;;;;;;;5051705;28;20494;-81
2023/03/29 05:46:02;;;;;;;14.70;7.03;;;;;;;;;;5052608;28;20037;-81
2023/03/29 05:48:28;;;;;;;10.60;6.10;;;;;;;;;;5051621;28;20189;-81
2023/03/29 05:50:55;;;;;;;13.43;6.80;;;;;;;;;;5051396;28;20094;-81
2023/03/29 05:53:22;;;;;;;22.25;8.77;;;;;;;;;;5051269;28;20051;-81
2023/03/29 05:55:48;;;;;;;24.27;10.70;;;;;;;;;;5052211;28;20047;-81
2023/03/29 05:58:16;;;;;;;25.25;11.10;;;;;;;;;;5052733;28;20044;-81
2023/03/29 06:00:43;;;;;;;22.25;11.70;;;;;;;;;;5048832;28;20073;-81
2023/03/29 06:03:15;;;;;;;22.17;12.23;;;;;;;;;;5046842;28;20059;-81
2023/03/29 06:05:42;;;;;;;22.15;11.52;;;;;;;;;;5052137;28;20044;-82
2023/03/29 06:08:08;;;;;;;25.40;12.68;;;;;;;;;;5071632;28;20024;-81
2023/03/29 06:10:36;;;;;;;23.95;11.82;;;;;;;;;;5071661;28;20050;-81
2023/03/29 06:13:02;;;;;;;24.48;10.88;;;;;;;;;;5072182;28;20032;-81
2023/03/29 06:15:28;;;;;;;20.38;10.98;;;;;;;;;;5071234;28;20059;-82
2023/03/29 06:17:54;;;;;;;26.48;11.55;;;;;;;;;;5072371;28;20044;-82
2023/03/29 06:20:21;;;;;;;19.25;9.27;;;;;;;;;;5054273;28;20493;-81
2023/03/29 06:22:47;;;;;;;18.05;9.25;;;;;;;;;;5067732;28;20561;-81
2023/03/29 06:25:16;;;;;;;19.05;9.10;;;;;;;;;;5050770;28;20053;-81
2023/03/29 06:27:42;;;;;;;15.35;7.97;;;;;;;;;;5051156;28;20049;-81
2023/03/29 06:30:08;;;;;;;14.50;7.10;;;;;;;;;;5052481;28;20044;-81
2023/03/29 06:32:34;;;;;;;13.07;7.30;;;;;;;;;;5050633;28;20048;-81
2023/03/29 06:35:01;;;;;;;12.98;7.35;;;;;;;;;;5050879;28;20048;-81
2023/03/29 06:37:28;;;;;;;12.90;7.32;;;;;;;;;;5051555;28;20049;-81
2023/03/29 06:39:54;;;;;;;13.55;6.65;;;;;;;;;;5050784;28;20052;-81
2023/03/29 06:42:20;;;;;;;11.32;6.35;;;;;;;;;;5034143;28;20442;-81
2023/03/29 06:44:46;;;;;;;11.18;6.47;;;;;;;;;;5050711;28;20037;-81
2023/03/29 06:47:13;;;;;;;12.90;7.13;;;;;;;;;;5050931;28;20041;-81
2023/03/29 06:49:39;;;;;;;12.38;6.30;;;;;;;;;;5050394;28;20040;-81
2023/03/29 06:52:05;;;;;;;14.93;7.50;;;;;;;;;;5033965;28;20044;-82
2023/03/29 06:54:32;;;;;;;10.88;6.03;;;;;;;;;;5051760;28;20033;-82
2023/03/29 06:56:58;;;;;;;13.02;6.82;;;;;;;;;;5050515;28;20120;-82
2023/03/29 06:59:25;;;;;;;10.85;6.35;;;;;;;;;;5050355;28;20143;-82
2023/03/29 07:01:52;;;;;;;9.90;5.97;;;;;;;;;;5038698;28;20502;-81
2023/03/29 07:04:19;;;;;;;13.02;6.10;;;;;;;;;;5051845;28;20049;-82
2023/03/29 07:06:50;;;;;;;10.70;6.30;;;;;;;;;;5057698;28;20044;-81
2023/03/29 07:09:18;;;;;;;12.43;6.82;;;;;;;;;;5054998;28;20486;-82
2023/03/29 07:11:45;;;;;;;11.90;6.30;;;;;;;;;;5050479;28;20052;-82
2023/03/29 07:14:11;;;;;;;12.77;6.80;;;;;;;;;;5051848;28;20103;-81
2023/03/29 07:16:37;;;;;;;11.23;6.85;;;;;;;;;;5053400;28;20043;-82
2023/03/29 07:19:04;;;;;;;10.52;6.07;;;;;;;;;;5055612;28;20048;-82
2023/03/29 07:21:30;;;;;;;12.52;6.75;;;;;;;;;;5054985;28;20053;-82
2023/03/29 07:24:00;;;;;;;11.60;6.43;;;;;;;;;;5054032;28;20049;-81
2023/03/29 07:26:27;;;;;;;13.00;6.82;;;;;;;;;;5037539;28;20045;-82
2023/03/29 07:28:53;;;;;;;14.40;6.80;;;;;;;;;;5055506;28;20041;-82
2023/03/29 07:31:19;;;;;;;12.20;5.97;;;;;;;;;;5053948;28;20041;-82
2023/03/29 07:33:48;;;;;;;13.60;6.80;;;;;;;;;;5053778;28;20168;-82
2023/03/29 07:36:15;;;;;;;12.30;6.57;;;;;;;;;;5054610;28;20123;-81
2023/03/29 07:38:41;;;;;;;10.25;6.20;;;;;;;;;;5039451;28;20119;-82
2023/03/29 07:41:08;;;;;;;14.35;6.22;;;;;;;;;;5055521;28;20041;-82
2023/03/29 07:43:34;;;;;;;12.48;6.35;;;;;;;;;;5054790;28;20037;-82
2023/03/29 07:46:04;;;;;;;14.65;6.75;;;;;;;;;;5053833;28;20052;-82
2023/03/29 07:48:31;;;;;;;13.02;6.50;;;;;;;;;;5053133;28;20047;-81
2023/03/29 07:50:57;;;;;;;11.52;6.43;;;;;;;;;;5054118;28;20078;-81
2023/03/29 07:53:23;;;;;;;13.93;6.45;;;;;;;;;;5054914;28;20440;-82
2023/03/29 07:55:51;;;;;;;12.27;6.60;;;;;;;;;;5053291;28;20045;-81
2023/03/29 07:58:17;;;;;;;14.05;6.80;;;;;;;;;;5053754;28;20084;-81
2023/03/29 08:00:43;;;;;;;10.60;5.90;;;;;;;;;;5065775;28;20081;-82
2023/03/29 08:03:12;;;;;;;12.65;6.85;;;;;;;;;;5035001;28;20511;-82
2023/03/29 08:05:38;;;;;;;12.35;6.60;;;;;;;;;;5053615;28;20433;-81
2023/03/29 08:08:05;;;;;;;9.80;5.85;;;;;;;;;;5071611;28;20076;-81
2023/03/29 08:10:33;;;;;;;12.40;6.10;;;;;;;;;;5056569;28;20047;-82
2023/03/29 08:12:59;;;;;;;8.60;5.90;;;;;;;;;;5074639;28;20397;-82
2023/03/29 08:15:26;;;;;;;13.40;6.45;;;;;;;;;;5074679;28;20040;-82
2023/03/29 08:17:53;;;;;;;14.02;6.63;;;;;;;;;;5074065;28;20036;-82
2023/03/29 08:20:19;;;;;;;10.75;6.18;;;;;;;;;;5066468;28;20068;-82
2023/03/29 08:22:45;;;;;;;9.55;5.95;;;;;;;;;;5065993;28;20046;-82
2023/03/29 08:25:11;;;;;;;10.18;6.25;;;;;;;;;;5065704;28;20049;-82
2023/03/29 08:27:38;;;;;;;12.30;7.18;;;;;;;;;;5052102;28;20041;-82
2023/03/29 08:30:06;;;;;;;12.65;6.18;;;;;;;;;;5053220;28;20425;-82
2023/03/29 08:32:32;;;;;;;9.25;6.07;;;;;;;;;;5069901;28;20044;-82
2023/03/29 08:35:00;;;;;;;11.27;5.80;;;;;;;;;;5086524;28;20120;-82
2023/03/29 08:37:26;;;;;;;11.02;5.80;;;;;;;;;;5054027;28;20541;-82
2023/03/29 08:39:52;;;;;;;11.27;6.15;;;;;;;;;;5035802;28;20044;-82
2023/03/29 08:42:18;;;;;;;9.23;5.88;;;;;;;;;;5052802;28;20142;-82
2023/03/29 08:44:50;;;;;;;9.13;6.07;;;;;;;;;;5085752;28;20045;-82
2023/03/29 08:47:29;;;;;;;10.60;5.80;;;;;;;;;;5052891;28;20553;-82
2023/03/29 08:49:55;;;;;;;9.57;6.03;;;;;;;;;;5035941;28;20037;-82
2023/03/29 08:52:30;;;;;;;9.02;6.13;;;;;;;;;;5053846;28;20375;-82
2023/03/29 08:54:58;;;;;;;13.82;7.22;;;;;;;;;;5052151;28;20049;-82
2023/03/29 08:57:27;;;;;;;10.07;6.20;;;;;;;;;;5052478;28;20138;-82
2023/03/29 08:59:54;;;;;;;15.15;7.40;;;;;;;;;;5053646;28;20048;-82
2023/03/29 09:02:26;;;;;;;12.88;6.78;;;;;;;;;;5050157;28;20049;-82
2023/03/29 09:04:54;;;;;;;12.80;6.88;;;;;;;;;;5052025;28;20048;-82
2023/03/29 09:07:21;;;;;;;12.57;6.78;;;;;;;;;;5065847;28;20032;-82
2023/03/29 09:09:47;;;;;;;12.80;6.80;;;;;;;;;;5071609;28;20068;-82
2023/03/29 09:12:19;;;;;;;14.95;8.23;;;;;;;;;;5072513;28;20040;-82
2023/03/29 09:15:00;;;;;;;12.57;7.00;;;;;;;;;;5072176;28;20082;-82
2023/03/29 09:17:38;;;;;;;15.57;6.95;;;;;;;;;;5072227;28;20083;-82
2023/03/29 09:20:17;;;;;;;12.90;8.68;;;;;;;;;;5072342;28;20481;-82
2023/03/29 09:22:52;;;;;;;13.45;7.32;;;;;;;;;;5071979;28;20484;-82
2023/03/29 09:25:26;;;;;;;14.07;7.55;;;;;;;;;;5073126;28;20052;-82
2023/03/29 09:28:01;;;;;;;15.43;7.65;;;;;;;;;;5042929;28;20045;-82
2023/03/29 09:30:40;;;;;;;13.85;7.40;;;;;;;;;;5052017;28;20044;-82
2023/03/29 09:33:42;;;;;;;14.40;8.73;;;;;;;;;;5052259;28;20041;-82
2023/03/29 09:36:14;;;;;;;19.75;9.52;;;;;;;;;;5017856;28;20052;-82
2023/03/29 09:38:42;;;;;;;25.05;12.23;;;;;;;;;;5048031;28;20076;-82
2023/03/29 09:41:17;;;;;;;27.38;13.43;;;;;;;;;;5051262;28;20223;-83
2023/03/29 09:43:44;;;;;;;23.77;12.70;;;;;;;;;;5052747;28;20045;-82
2023/03/29 09:46:22;;;;;;;22.58;12.38;;;;;;;;;;5051990;28;20033;-82
2023/03/29 09:48:49;;;;;;;21.60;11.60;;;;;;;;;;5051314;28;20086;-82
2023/03/29 09:51:16;;;;;;;25.23;12.52;;;;;;;;;;5052938;28;20075;-82
2023/03/29 09:53:42;;;;;;;22.90;12.65;;;;;;;;;;5052164;28;20086;-82
2023/03/29 09:56:09;;;;;;;22.58;11.45;;;;;;;;;;5034958;28;20067;-82
2023/03/29 09:58:36;;;;;;;21.85;10.95;;;;;;;;;;5051547;28;20033;-82
2023/03/29 10:01:04;;;;;;;17.20;9.75;;;;;;;;;;5052465;28;20045;-83
2023/03/29 10:03:32;;;;;;;18.15;9.93;;;;;;;;;;5051387;28;20049;-82
2023/03/29 10:06:00;;;;;;;17.70;9.93;;;;;;;;;;5035483;28;20045;-82
2023/03/29 10:08:28;;;;;;;18.17;9.85;;;;;;;;;;5054763;28;20036;-82
2023/03/29 10:10:56;;;;;;;17.05;9.25;;;;;;;;;;5072132;28;20037;-83
2023/03/29 10:13:29;;;;;;;16.45;9.52;;;;;;;;;;5054811;28;20488;-82
2023/03/29 10:16:06;;;;;;;14.35;8.95;;;;;;;;;;5071128;28;20052;-82
2023/03/29 10:18:34;;;;;;;15.32;9.27;;;;;;;;;;5071160;28;20230;-83
2023/03/29 10:21:02;;;;;;;16.48;9.30;;;;;;;;;;5072357;28;20041;-82
2023/03/29 10:23:36;;;;;;;15.50;8.77;;;;;;;;;;5071003;28;20037;-82
2023/03/29 10:26:03;;;;;;;18.02;9.30;;;;;;;;;;5070932;28;20131;-83
2023/03/29 10:28:30;;;;;;;17.58;9.50;;;;;;;;;;5072147;28;20424;-83
2023/03/29 10:30:58;;;;;;;14.63;9.38;;;;;;;;;;5071036;28;20551;-82
2023/03/29 10:33:24;;;;;;;13.73;8.65;;;;;;;;;;5056987;28;20045;-82
2023/03/29 10:35:51;;;;;;;13.75;8.63;;;;;;;;;;5045652;28;20098;-83
2023/03/29 10:38:18;;;;;;;17.10;9.00;;;;;;;;;;5065725;28;20401;-83
2023/03/29 10:40:48;;;;;;;15.50;8.50;;;;;;;;;;5060647;28;20048;-83
2023/03/29 10:43:20;;;;;;;13.43;9.00;;;;;;;;;;5051085;28;20041;-83
2023/03/29 10:45:51;;;;;;;15.95;9.15;;;;;;;;;;5050746;28;20085;-83
2023/03/29 10:48:18;;;;;;;14.23;8.88;;;;;;;;;;5052331;28;20124;-83
2023/03/29 10:50:50;;;;;;;13.13;8.70;;;;;;;;;;5052710;28;20067;-83
2023/03/29 10:53:22;;;;;;;12.20;8.73;;;;;;;;;;5055495;28;20055;-82
2023/03/29 10:56:07;;;;;;;16.77;9.52;;;;;;;;;;5055023;28;20037;-82
2023/03/29 10:58:36;;;;;;;17.92;9.07;;;;;;;;;;5055312;28;20076;-83
2023/03/29 11:01:03;;;;;;;15.40;8.93;;;;;;;;;;5048873;28;20045;-82
2023/03/29 11:03:52;;;;;;;15.15;9.38;;;;;;;;;;5054914;28;20037;-82
2023/03/29 11:06:28;;;;;;;12.95;9.05;;;;;;;;;;5054612;28;20053;-82
2023/03/29 11:09:14;;;;;;;16.85;8.70;;;;;;;;;;5059857;28;20048;-83
2023/03/29 11:11:46;;;;;;;15.15;9.52;;;;;;;;;;5047023;28;20041;-82
2023/03/29 11:14:12;;;;;;;15.77;9.57;;;;;;;;;;5054378;28;20489;-82
2023/03/29 11:16:44;;;;;;;14.02;8.85;;;;;;;;;;5054669;28;20134;-82
2023/03/29 11:19:25;;;;;;;12.82;9.18;;;;;;;;;;5055122;28;20520;-83
2023/03/29 11:21:54;;;;;;;14.02;9.32;;;;;;;;;;5054491;28;20040;-82
2023/03/29 11:24:23;;;;;;;14.82;9.80;;;;;;;;;;5055985;28;20053;-82
2023/03/29 11:27:12;;;;;;;18.58;9.95;;;;;;;;;;5054788;28;20098;-83
2023/03/29 11:29:42;;;;;;;15.38;9.63;;;;;;;;;;5054630;28;20164;-82
2023/03/29 11:32:18;;;;;;;15.80;10.25;;;;;;;;;;5037679;28;20037;-82
2023/03/29 11:34:47;;;;;;;18.00;9.82;;;;;;;;;;5054417;28;20098;-83
2023/03/29 11:37:16;;;;;;;13.00;9.38;;;;;;;;;;5054324;28;20056;-82
2023/03/29 11:39:52;;;;;;;15.43;9.75;;;;;;;;;;5044861;28;20045;-82
2023/03/29 11:42:24;;;;;;;14.70;10.13;;;;;;;;;;5046527;28;20127;-82
2023/03/29 11:44:51;;;;;;;16.40;11.48;;;;;;;;;;5052987;28;20054;-83
2023/03/29 11:47:20;;;;;;;14.18;9.90;;;;;;;;;;5054405;28;20071;-82
2023/03/29 11:49:51;;;;;;;18.65;10.30;;;;;;;;;;5054693;28;20405;-82
2023/03/29 11:52:23;;;;;;;14.88;10.10;;;;;;;;;;5054802;28;20045;-82
2023/03/29 11:54:56;;;;;;;16.08;10.13;;;;;;;;;;5061055;28;20095;-83
2023/03/29 11:57:28;;;;;;;15.90;10.45;;;;;;;;;;5055089;28;20060;-83
2023/03/29 11:59:59;;;;;;;17.98;10.57;;;;;;;;;;5055196;28;20140;-82
2023/03/29 12:02:35;;;;;;;15.45;9.73;;;;;;;;;;5045615;28;20069;-83
2023/03/29 12:05:06;;;;;;;18.92;10.48;;;;;;;;;;5037756;28;20171;-82
2023/03/29 12:07:36;;;;;;;15.30;10.25;;;;;;;;;;5072152;28;20040;-83
2023/03/29 12:10:22;;;;;;;16.08;10.63;;;;;;;;;;5042222;28;20124;-82
2023/03/29 12:13:00;;;;;;;18.05;10.20;;;;;;;;;;5068028;28;20101;-82
2023/03/29 12:15:30;;;;;;;16.90;10.20;;;;;;;;;;5063902;28;20477;-82
2023/03/29 12:18:17;;;;;;;16.50;10.02;;;;;;;;;;5041789;28;20120;-82
2023/03/29 12:20:46;;;;;;;16.27;10.18;;;;;;;;;;5053987;28;20072;-82
2023/03/29 12:23:15;;;;;;;16.85;10.23;;;;;;;;;;5054985;28;20084;-83
2023/03/29 12:26:01;;;;;;;17.48;9.93;;;;;;;;;;5053729;28;20057;-83
2023/03/29 12:28:32;;;;;;;15.15;9.98;;;;;;;;;;5054247;28;20119;-82
2023/03/29 12:31:06;;;;;;;15.32;10.20;;;;;;;;;;5053853;28;20076;-82
2023/03/29 12:33:41;;;;;;;14.35;9.60;;;;;;;;;;5054545;28;20500;-82
2023/03/29 12:36:10;;;;;;;16.63;9.98;;;;;;;;;;5054370;28;20489;-83
2023/03/29 12:38:37;;;;;;;16.40;9.88;;;;;;;;;;5053890;28;20049;-83
2023/03/29 12:41:09;;;;;;;16.58;9.85;;;;;;;;;;5070236;28;20045;-82
2023/03/29 12:43:40;;;;;;;19.70;14.18;;;;;;;;;;5054990;28;20124;-82
2023/03/29 12:46:07;;;;;;;15.95;10.13;;;;;;;;;;5036723;28;20041;-83
2023/03/29 12:48:36;;;;;;;14.40;9.40;;;;;;;;;;5053514;28;20076;-83
2023/03/29 12:51:22;;;;;;;15.63;10.30;;;;;;;;;;5053107;28;20044;-83
2023/03/29 12:53:50;;;;;;;15.65;9.52;;;;;;;;;;5053896;28;20547;-83
2023/03/29 12:56:22;;;;;;;15.23;9.70;;;;;;;;;;5066949;28;20127;-86
2023/03/29 12:58:48;;;;;;;17.08;10.07;;;;;;;;;;5053743;28;20106;-85
2023/03/29 13:01:31;;;;;;;18.17;10.00;;;;;;;;;;5045149;28;20041;-86
2023/03/29 13:04:12;;;;;;;25.52;13.45;;;;;;;;;;5053518;28;20041;-85
2023/03/29 13:06:47;;;;;;;34.83;15.07;;;;;;;;;;5040164;28;20067;-85
2023/03/29 13:09:28;;;;;;;16.83;10.23;;;;;;;;;;5067565;28;20454;-85
2023/03/29 13:12:04;;;;;;;22.80;12.70;;;;;;;;;;5066237;28;20049;-85
2023/03/29 13:14:32;;;;;;;17.73;11.15;;;;;;;;;;5053933;28;20557;-85
2023/03/29 13:17:05;;;;;;;14.68;9.85;;;;;;;;;;5054976;28;20044;-86
2023/03/29 13:19:40;;;;;;;15.82;10.18;;;;;;;;;;5053186;28;20129;-85
2023/03/29 13:22:19;;;;;;;22.80;12.50;;;;;;;;;;5035949;28;20044;-85
2023/03/29 13:25:00;;;;;;;16.60;10.70;;;;;;;;;;5051441;28;20051;-84
2023/03/29 13:27:38;;;;;;;16.60;10.70;;;;;;;;;;5041647;28;20088;-84
2023/03/29 13:30:22;;;;;;;16.10;9.50;;;;;;;;;;5035583;28;20603;-84
2023/03/29 13:32:49;;;;;;;13.38;9.48;;;;;;;;;;5053607;28;20440;-83
2023/03/29 13:35:18;;;;;;;13.57;9.50;;;;;;;;;;5051813;28;20063;-83
2023/03/29 13:38:04;;;;;;;14.20;10.05;;;;;;;;;;5052460;28;20396;-82
2023/03/29 13:40:30;;;;;;;15.63;10.00;;;;;;;;;;5052031;28;20045;-82
2023/03/29 13:42:59;;;;;;;14.55;9.50;;;;;;;;;;5051884;28;20099;-82
2023/03/29 13:45:29;;;;;;;13.88;10.07;;;;;;;;;;5051848;28;20033;-82
2023/03/29 13:48:03;;;;;;;13.77;9.90;;;;;;;;;;5052210;28;20123;-82
2023/03/29 13:50:34;;;;;;;13.68;10.07;;;;;;;;;;5051893;28;20901;-82
2023/03/29 13:53:12;;;;;;;14.63;9.88;;;;;;;;;;5052642;28;20179;-82
2023/03/29 13:55:45;;;;;;;10.93;9.02;;;;;;;;;;5052411;28;20047;-82
2023/03/29 13:58:13;;;;;;;13.55;9.13;;;;;;;;;;5052937;28;20052;-82
2023/03/29 14:00:44;;;;;;;12.55;9.23;;;;;;;;;;5051702;28;20270;-82
2023/03/29 14:03:15;;;;;;;13.55;8.95;;;;;;;;;;5052939;28;20512;-82
2023/03/29 14:05:43;;;;;;;12.20;8.90;;;;;;;;;;5053340;28;20029;-82
2023/03/29 14:08:09;;;;;;;12.48;9.10;;;;;;;;;;5072650;28;20092;-82
2023/03/29 14:10:39;;;;;;;12.30;8.65;;;;;;;;;;5073037;28;20044;-82
2023/03/29 14:13:05;;;;;;;12.30;9.13;;;;;;;;;;5057881;28;20040;-82
2023/03/29 14:15:39;;;;;;;12.63;9.00;;;;;;;;;;5054831;28;20048;-82
2023/03/29 14:18:09;;;;;;;13.13;7.95;;;;;;;;;;5055008;28;20113;-82
2023/03/29 14:20:36;;;;;;;11.80;8.77;;;;;;;;;;5062503;28;20063;-82
2023/03/29 14:23:09;;;;;;;12.75;9.07;;;;;;;;;;5047218;28;20067;-82
2023/03/29 14:25:37;;;;;;;13.82;9.45;;;;;;;;;;5050237;28;20406;-82
2023/03/29 14:28:12;;;;;;;12.25;9.20;;;;;;;;;;5052632;28;20071;-82
2023/03/29 14:30:45;;;;;;;11.45;8.52;;;;;;;;;;5051015;28;20041;-82
2023/03/29 14:33:25;;;;;;;12.27;8.93;;;;;;;;;;5052463;28;20041;-82
2023/03/29 14:35:51;;;;;;;13.10;9.25;;;;;;;;;;5052452;28;20084;-82
2023/03/29 14:38:18;;;;;;;12.95;8.77;;;;;;;;;;5051002;28;20099;-82
2023/03/29 14:40:44;;;;;;;14.43;9.88;;;;;;;;;;5052571;28;20489;-82
2023/03/29 14:43:14;;;;;;;14.73;10.50;;;;;;;;;;5052246;28;20033;-82
2023/03/29 14:45:40;;;;;;;15.18;9.43;;;;;;;;;;5051911;28;20099;-82